Time;durP1;ratioP1;P1;durP2;ratioP2;P2;SDS_P1;SDS_P2;PMS_P1;PMS_P2;Temp;Humidity;BMP_temperature;BMP_pressure;BME280_temperature;BME280_humidity;BME280_pressure;Samples;Min_cycle;Max_cycle;Signal;HPM_P1;HPM_P2
2022/05/23 00:01:30;;;;;;;0.40;0.40;;;22.10;49.70;;;;;;6171768;28;20043;-66
2022/05/23 00:04:31;;;;;;;0.22;0.20;;;22.10;49.60;;;;;;6154487;28;20401;-67
2022/05/23 00:07:39;;;;;;;0.20;0.20;;;22.10;49.70;;;;;;6171642;28;20039;-66
2022/05/23 00:10:40;;;;;;;0.20;0.20;;;22.10;49.70;;;;;;6171810;28;20113;-67
2022/05/23 00:13:40;;;;;;;0.30;0.30;;;22.10;49.70;;;;;;6171252;28;20745;-66
2022/05/23 00:16:44;;;;;;;0.43;0.35;;;22.10;49.70;;;;;;6171798;28;20110;-68
2022/05/23 00:19:46;;;;;;;0.40;0.30;;;22.10;49.70;;;;;;6154008;28;20534;-67
2022/05/23 00:22:47;;;;;;;0.68;0.43;;;22.10;49.70;;;;;;6171235;28;20078;-67
2022/05/23 00:25:47;;;;;;;0.20;0.20;;;22.10;49.70;;;;;;6171195;28;20058;-66
2022/05/23 00:28:49;;;;;;;0.57;0.38;;;22.10;49.70;;;;;;6186094;28;20057;-66
2022/05/23 00:35:18;;;;;;;0.47;0.30;;;22.10;49.80;;;;;;6219573;28;20042;-66
2022/05/23 00:38:19;;;;;;;0.52;0.30;;;22.10;49.80;;;;;;6219761;28;20030;-67
2022/05/23 00:44:56;;;;;;;0.30;0.25;;;22.10;49.80;;;;;;6219096;28;20030;-66
2022/05/23 00:47:57;;;;;;;0.30;0.20;;;22.10;49.80;;;;;;6219858;28;20030;-66
2022/05/23 00:51:00;;;;;;;0.30;0.20;;;22.10;49.80;;;;;;6219280;28;20613;-66
2022/05/23 00:54:04;;;;;;;0.52;0.30;;;22.10;49.80;;;;;;6199010;28;20123;-66
2022/05/23 00:57:08;;;;;;;0.45;0.32;;;22.10;49.80;;;;;;6195142;28;20117;-66
2022/05/23 01:00:10;;;;;;;0.30;0.20;;;22.10;49.80;;;;;;6194638;28;20395;-67
2022/05/23 01:03:15;;;;;;;0.30;0.25;;;22.10;49.90;;;;;;6194525;28;20045;-66
2022/05/23 01:06:16;;;;;;;0.28;0.28;;;22.10;49.90;;;;;;6194722;28;20371;-66
2022/05/23 01:09:20;;;;;;;0.40;0.30;;;22.10;49.90;;;;;;6195090;28;20033;-67
2022/05/23 01:12:21;;;;;;;0.63;0.30;;;22.10;49.90;;;;;;6194873;28;20058;-67
2022/05/23 01:15:28;;;;;;;0.32;0.30;;;22.10;50.00;;;;;;6194844;28;20029;-67
2022/05/23 01:18:28;;;;;;;0.45;0.40;;;22.10;50.00;;;;;;6194539;28;20023;-66
2022/05/23 01:21:40;;;;;;;0.30;0.30;;;22.10;50.10;;;;;;6194836;28;20033;-67
2022/05/23 01:25:08;;;;;;;0.22;0.22;;;22.00;50.00;;;;;;6209510;28;20041;-66
2022/05/23 01:28:09;;;;;;;0.30;0.30;;;22.10;50.10;;;;;;6194640;28;20026;-67
2022/05/23 01:31:12;;;;;;;0.30;0.30;;;22.00;50.70;;;;;;6191675;28;20053;-67
2022/05/23 01:34:13;;;;;;;0.20;0.20;;;22.00;50.10;;;;;;6218546;28;20029;-66
2022/05/23 01:37:13;;;;;;;0.35;0.20;;;22.00;50.10;;;;;;6210854;28;20449;-68
2022/05/23 01:40:17;;;;;;;0.20;0.20;;;22.00;50.20;;;;;;6194474;28;20034;-66
2022/05/23 01:43:17;;;;;;;0.40;0.30;;;22.00;50.20;;;;;;6194126;28;20022;-67
2022/05/23 01:46:18;;;;;;;0.28;0.25;;;22.00;50.20;;;;;;6194525;28;20113;-66
2022/05/23 01:49:19;;;;;;;0.63;0.40;;;22.00;50.20;;;;;;6194334;28;20037;-67
2022/05/23 01:52:19;;;;;;;0.35;0.30;;;22.00;50.20;;;;;;6194294;28;20026;-67
2022/05/23 01:55:20;;;;;;;0.22;0.20;;;22.00;50.20;;;;;;6193985;28;20541;-67
2022/05/23 02:01:41;;;;;;;0.55;0.40;;;22.00;50.30;;;;;;6193892;28;20027;-67
2022/05/23 02:04:45;;;;;;;0.32;0.20;;;22.00;50.40;;;;;;6194203;28;20023;-66
2022/05/23 02:07:46;;;;;;;0.20;0.20;;;21.90;50.30;;;;;;6194497;28;20050;-66
2022/05/23 02:10:46;;;;;;;0.30;0.30;;;22.00;50.40;;;;;;6194264;28;20138;-67
2022/05/23 02:13:47;;;;;;;0.20;0.20;;;22.00;50.40;;;;;;6193773;28;20461;-67
2022/05/23 02:16:47;;;;;;;0.20;0.20;;;22.00;50.50;;;;;;6193542;28;20540;-67
2022/05/23 02:19:48;;;;;;;0.30;0.22;;;22.00;50.50;;;;;;6194484;28;20105;-67
2022/05/23 02:22:49;;;;;;;0.57;0.30;;;21.90;50.50;;;;;;6198085;28;20037;-67
2022/05/23 02:25:49;;;;;;;0.20;0.20;;;22.00;50.60;;;;;;6198226;28;20034;-67
2022/05/23 02:28:50;;;;;;;0.20;0.20;;;21.90;50.50;;;;;;6198204;28;20153;-67
2022/05/23 02:31:50;;;;;;;0.30;0.30;;;21.90;50.50;;;;;;6197794;28;20077;-66
2022/05/23 02:34:51;;;;;;;0.15;0.15;;;21.90;50.50;;;;;;6198018;28;20416;-67
2022/05/23 02:37:52;;;;;;;0.70;0.30;;;21.90;50.50;;;;;;6197988;28;20105;-67
2022/05/23 02:40:52;;;;;;;0.30;0.30;;;21.90;50.50;;;;;;6198167;28;20026;-66
2022/05/23 02:43:53;;;;;;;0.70;0.30;;;21.90;50.60;;;;;;6197552;28;20037;-66
2022/05/23 02:46:54;;;;;;;0.35;0.35;;;21.90;50.70;;;;;;6229274;28;20626;-66
2022/05/23 02:49:55;;;;;;;0.20;0.20;;;21.90;50.60;;;;;;6204310;28;20117;-67
2022/05/23 02:52:55;;;;;;;0.20;0.20;;;21.90;50.60;;;;;;6210614;28;20045;-66
2022/05/23 02:55:56;;;;;;;0.45;0.22;;;21.90;50.70;;;;;;6196978;28;20029;-66
2022/05/23 02:58:57;;;;;;;0.80;0.40;;;21.90;50.60;;;;;;6197421;28;20026;-67
2022/05/23 03:05:17;;;;;;;0.30;0.30;;;21.90;50.70;;;;;;6197377;28;20034;-67
2022/05/23 03:08:22;;;;;;;0.93;0.30;;;21.90;50.70;;;;;;6197520;28;20106;-67
2022/05/23 03:11:23;;;;;;;0.75;0.30;;;21.90;50.70;;;;;;6197605;28;20642;-66
2022/05/23 03:14:26;;;;;;;0.38;0.20;;;21.90;50.70;;;;;;6197135;28;20077;-67
2022/05/23 03:17:27;;;;;;;0.35;0.30;;;21.90;50.70;;;;;;6197020;28;20033;-66
2022/05/23 03:20:28;;;;;;;0.30;0.30;;;21.90;50.70;;;;;;6197057;28;20026;-67
2022/05/23 03:27:00;;;;;;;0.20;0.20;;;21.90;50.70;;;;;;6196972;28;20477;-66
2022/05/23 03:30:01;;;;;;;0.70;0.38;;;21.90;50.70;;;;;;6196785;28;20417;-66
2022/05/23 03:33:02;;;;;;;0.20;0.20;;;21.80;50.70;;;;;;6218908;28;20034;-67
2022/05/23 03:36:03;;;;;;;0.30;0.20;;;21.90;50.80;;;;;;6199713;28;20022;-67
2022/05/23 03:39:04;;;;;;;0.28;0.28;;;21.90;50.70;;;;;;6196468;28;20022;-67
2022/05/23 03:42:06;;;;;;;0.60;0.30;;;21.90;50.80;;;;;;6196728;28;20080;-66
2022/05/23 03:45:07;;;;;;;0.20;0.20;;;21.80;50.80;;;;;;6196469;28;20019;-67
2022/05/23 03:48:08;;;;;;;0.22;0.22;;;21.80;50.70;;;;;;6196266;28;20029;-67
2022/05/23 03:51:09;;;;;;;0.22;0.22;;;21.80;50.70;;;;;;6196620;28;20367;-66
2022/05/23 03:54:10;;;;;;;0.55;0.20;;;21.80;50.80;;;;;;6195876;28;20026;-66
2022/05/23 03:57:10;;;;;;;0.45;0.40;;;21.80;50.80;;;;;;6196485;28;20033;-67
2022/05/23 04:00:12;;;;;;;0.63;0.40;;;21.80;50.80;;;;;;6195746;28;20114;-67
2022/05/23 04:03:14;;;;;;;0.50;0.20;;;21.80;50.80;;;;;;6196157;28;20477;-66
2022/05/23 04:06:15;;;;;;;0.38;0.30;;;21.80;50.80;;;;;;6195927;28;20025;-66
2022/05/23 04:09:16;;;;;;;0.20;0.20;;;21.80;50.80;;;;;;6178383;28;20113;-66
2022/05/23 04:12:16;;;;;;;0.43;0.20;;;21.80;50.90;;;;;;6198409;28;20026;-67
2022/05/23 04:15:17;;;;;;;0.20;0.20;;;21.80;50.80;;;;;;6195758;28;20390;-67
2022/05/23 04:18:18;;;;;;;0.30;0.28;;;21.80;50.80;;;;;;6195355;28;20084;-67
2022/05/23 04:21:19;;;;;;;0.22;0.22;;;21.80;50.90;;;;;;6195696;28;20030;-66
2022/05/23 04:24:19;;;;;;;0.35;0.20;;;21.80;50.90;;;;;;6194126;28;20054;-66
2022/05/23 04:27:20;;;;;;;0.32;0.30;;;21.80;50.80;;;;;;6195540;28;20041;-67
2022/05/23 04:30:20;;;;;;;0.10;0.10;;;21.80;50.90;;;;;;6195429;28;20405;-67
2022/05/23 04:36:40;;;;;;;0.30;0.20;;;21.80;50.90;;;;;;6195804;28;20030;-66
2022/05/23 04:39:41;;;;;;;0.35;0.30;;;21.80;50.90;;;;;;6195701;28;20037;-66
2022/05/23 04:42:42;;;;;;;0.45;0.35;;;21.80;50.90;;;;;;6195482;28;20061;-67
2022/05/23 04:45:43;;;;;;;0.45;0.30;;;21.80;50.90;;;;;;6195594;28;20034;-67
2022/05/23 04:52:03;;;;;;;0.40;0.40;;;21.80;50.90;;;;;;6195169;28;20018;-67
2022/05/23 04:55:04;;;;;;;0.22;0.20;;;21.80;51.00;;;;;;6195151;28;20428;-67
2022/05/23 04:58:05;;;;;;;0.30;0.25;;;21.80;50.90;;;;;;6194910;28;20448;-66
2022/05/23 05:01:06;;;;;;;0.28;0.28;;;21.80;50.90;;;;;;6194416;28;20030;-66
2022/05/23 05:04:07;;;;;;;0.30;0.20;;;21.80;50.90;;;;;;6194999;28;20026;-66
2022/05/23 05:07:07;;;;;;;0.30;0.30;;;21.80;51.00;;;;;;6194836;28;20098;-67
2022/05/23 05:10:09;;;;;;;0.57;0.30;;;21.80;50.90;;;;;;6194947;28;20034;-66
2022/05/23 05:13:09;;;;;;;0.10;0.10;;;21.80;50.90;;;;;;6194802;28;20038;-66
2022/05/23 05:16:11;;;;;;;0.20;0.20;;;21.80;51.00;;;;;;6194576;28;20552;-66
2022/05/23 05:19:11;;;;;;;0.20;0.20;;;21.80;50.90;;;;;;6194872;28;20113;-67
2022/05/23 05:22:12;;;;;;;0.52;0.30;;;21.80;51.00;;;;;;6194537;28;20037;-66
2022/05/23 05:25:14;;;;;;;0.20;0.20;;;21.80;50.90;;;;;;6194824;28;20034;-67
2022/05/23 05:28:14;;;;;;;0.30;0.20;;;21.80;50.90;;;;;;6194424;28;20023;-66
2022/05/23 05:31:22;;;;;;;0.35;0.30;;;21.80;51.00;;;;;;6194117;28;20057;-67
2022/05/23 05:34:34;;;;;;;0.45;0.32;;;21.80;51.00;;;;;;6186101;28;20133;-67
2022/05/23 05:37:44;;;;;;;0.20;0.20;;;21.80;51.00;;;;;;6193171;28;20413;-68
2022/05/23 05:40:47;;;;;;;0.32;0.30;;;21.80;50.90;;;;;;6193270;28;20023;-70
2022/05/23 05:43:58;;;;;;;0.40;0.40;;;21.80;51.00;;;;;;6208299;28;20026;-69
2022/05/23 05:47:04;;;;;;;0.30;0.30;;;21.80;51.00;;;;;;6192991;28;20437;-69
2022/05/23 05:50:12;;;;;;;0.30;0.30;;;21.80;51.20;;;;;;6193383;28;20527;-68
2022/05/23 05:53:17;;;;;;;0.70;0.40;;;21.80;51.20;;;;;;6192977;28;20110;-68
2022/05/23 05:56:19;;;;;;;0.68;0.47;;;21.80;51.10;;;;;;6196500;28;20478;-69
2022/05/23 05:59:20;;;;;;;0.80;0.30;;;21.80;51.10;;;;;;6194382;28;20486;-67
2022/05/23 06:02:21;;;;;;;0.50;0.30;;;21.80;51.00;;;;;;6185005;28;20053;-67
2022/05/23 06:05:22;;;;;;;1.08;0.50;;;21.80;51.00;;;;;;6199287;28;20083;-67
2022/05/23 06:11:42;;;;;;;0.65;0.40;;;21.80;50.90;;;;;;6201021;28;20485;-69
2022/05/23 06:14:44;;;;;;;2.85;0.50;;;21.80;51.00;;;;;;6215702;28;20101;-70
2022/05/23 06:17:44;;;;;;;1.60;0.43;;;21.80;50.90;;;;;;6201202;28;20022;-69
2022/05/23 06:20:47;;;;;;;6.22;0.70;;;21.80;50.90;;;;;;6200906;28;20394;-69
2022/05/23 06:23:47;;;;;;;0.70;0.57;;;21.70;51.60;;;;;;6200891;28;20146;-69
2022/05/23 06:26:48;;;;;;;0.55;0.32;;;21.80;51.10;;;;;;6200383;28;20034;-70
2022/05/23 06:29:48;;;;;;;0.90;0.52;;;21.80;51.10;;;;;;6200557;28;20050;-69
2022/05/23 06:32:49;;;;;;;2.15;0.77;;;21.80;51.20;;;;;;6215416;28;20022;-69
2022/05/23 06:35:50;;;;;;;0.60;0.45;;;21.70;51.10;;;;;;6200519;28;20030;-70
2022/05/23 06:38:51;;;;;;;0.75;0.50;;;21.80;51.20;;;;;;6215407;28;20027;-69
2022/05/23 06:41:51;;;;;;;0.70;0.55;;;21.70;51.10;;;;;;6200504;28;20022;-69
2022/05/23 06:44:52;;;;;;;0.80;0.50;;;21.80;51.20;;;;;;6200152;28;20033;-69
2022/05/23 06:47:53;;;;;;;1.05;0.40;;;21.70;51.10;;;;;;6200275;28;20026;-69
2022/05/23 06:50:55;;;;;;;0.50;0.40;;;21.70;51.10;;;;;;6200171;28;20437;-69
2022/05/23 06:53:57;;;;;;;0.90;0.60;;;21.70;51.20;;;;;;6199686;28;20031;-69
2022/05/23 06:56:57;;;;;;;1.10;0.70;;;21.70;51.20;;;;;;6182443;28;20038;-69
2022/05/23 06:59:58;;;;;;;0.68;0.57;;;21.80;51.30;;;;;;6200031;28;20023;-69
2022/05/23 07:02:59;;;;;;;0.40;0.40;;;21.70;51.20;;;;;;6199965;28;20042;-69
2022/05/23 07:12:42;;;;;;;0.43;0.43;;;21.70;51.20;;;;;;6199410;28;20023;-69
2022/05/23 07:15:49;;;;;;;2.15;0.75;;;21.70;51.20;;;;;;6182385;28;20030;-69
2022/05/23 07:18:51;;;;;;;0.75;0.43;;;21.70;51.20;;;;;;6182180;28;20029;-69
2022/05/23 07:21:51;;;;;;;0.70;0.50;;;21.70;51.20;;;;;;6198161;28;20033;-69
2022/05/23 07:24:52;;;;;;;1.00;0.70;;;21.70;51.30;;;;;;6182150;28;20027;-69
2022/05/23 07:27:52;;;;;;;0.43;0.43;;;21.70;51.20;;;;;;6197842;28;20049;-69
2022/05/23 07:30:53;;;;;;;1.27;0.52;;;21.70;51.20;;;;;;6187617;28;20053;-71
2022/05/23 07:33:54;;;;;;;1.48;0.47;;;21.70;51.30;;;;;;6205531;28;20037;-69
2022/05/23 07:36:55;;;;;;;0.68;0.50;;;21.70;51.20;;;;;;6223610;28;20033;-70
2022/05/23 07:39:58;;;;;;;0.55;0.47;;;21.70;51.20;;;;;;6223157;28;20054;-69
2022/05/23 07:42:59;;;;;;;0.88;0.55;;;21.70;51.30;;;;;;6223269;28;20022;-69
2022/05/23 07:46:08;;;;;;;1.13;0.60;;;21.70;51.30;;;;;;6222897;28;20065;-68
2022/05/23 07:49:09;;;;;;;0.50;0.40;;;21.70;51.20;;;;;;6205689;28;20030;-69
2022/05/23 07:52:10;;;;;;;0.65;0.40;;;21.70;51.20;;;;;;6232831;28;20085;-69
2022/05/23 08:01:49;;;;;;;0.40;0.35;;;21.70;51.30;;;;;;6198374;28;20494;-68
2022/05/23 08:04:50;;;;;;;0.52;0.50;;;21.70;51.30;;;;;;6198166;28;20029;-69
2022/05/23 08:07:50;;;;;;;1.42;0.73;;;21.70;51.30;;;;;;6198535;28;20031;-69
2022/05/23 08:10:52;;;;;;;0.47;0.47;;;21.70;51.30;;;;;;6181182;28;20030;-69
2022/05/23 08:13:55;;;;;;;0.45;0.40;;;21.70;51.30;;;;;;6198010;28;20039;-69
2022/05/23 08:16:55;;;;;;;1.08;0.50;;;21.70;51.30;;;;;;6198171;28;20510;-69
2022/05/23 08:19:56;;;;;;;0.80;0.50;;;21.70;51.30;;;;;;6181104;28;20022;-69
2022/05/23 08:22:59;;;;;;;0.65;0.50;;;21.70;51.30;;;;;;6198303;28;20444;-69
2022/05/23 08:26:00;;;;;;;0.77;0.60;;;21.70;51.30;;;;;;6197969;28;20085;-69
2022/05/23 08:29:01;;;;;;;0.90;0.45;;;21.70;51.30;;;;;;6180554;28;20037;-69
2022/05/23 08:32:06;;;;;;;1.05;0.52;;;21.70;51.30;;;;;;6195392;28;20058;-69
2022/05/23 08:35:08;;;;;;;0.80;0.45;;;21.70;51.30;;;;;;6222060;28;20367;-69
2022/05/23 08:38:09;;;;;;;0.65;0.40;;;21.70;51.30;;;;;;6222144;28;20105;-69
2022/05/23 08:41:16;;;;;;;2.15;0.68;;;21.70;51.30;;;;;;6204209;28;20428;-69
2022/05/23 08:44:22;;;;;;;0.65;0.40;;;21.70;51.30;;;;;;6218144;28;20030;-69
2022/05/23 08:47:47;;;;;;;0.47;0.40;;;21.70;51.30;;;;;;6180050;28;20026;-69
2022/05/23 08:51:06;;;;;;;0.30;0.30;;;21.70;51.20;;;;;;6197337;28;20420;-69
2022/05/23 08:54:21;;;;;;;0.68;0.50;;;21.70;51.30;;;;;;6212163;28;20124;-69
2022/05/23 08:57:32;;;;;;;0.35;0.32;;;21.70;51.30;;;;;;6197323;28;20029;-69
2022/05/23 09:00:42;;;;;;;0.50;0.40;;;21.70;51.30;;;;;;6179513;28;20033;-70
2022/05/23 09:04:15;;;;;;;0.85;0.47;;;21.70;51.30;;;;;;6197276;28;20030;-70
2022/05/23 09:07:52;;;;;;;0.68;0.40;;;21.70;51.30;;;;;;6189579;28;20083;-69
2022/05/23 09:11:00;;;;;;;0.55;0.35;;;21.70;51.30;;;;;;6179846;28;20412;-69
2022/05/23 09:14:01;;;;;;;0.70;0.45;;;21.70;51.30;;;;;;6197049;28;20038;-69
2022/05/23 09:17:03;;;;;;;0.38;0.38;;;21.70;51.30;;;;;;6195580;28;20096;-69
2022/05/23 09:20:12;;;;;;;0.73;0.40;;;21.70;51.30;;;;;;6197002;28;20053;-69
2022/05/23 09:23:37;;;;;;;0.73;0.40;;;21.70;51.30;;;;;;6196938;28;20125;-69
2022/05/23 09:26:38;;;;;;;0.20;0.20;;;21.70;51.30;;;;;;6179571;28;20049;-69
2022/05/23 09:29:38;;;;;;;0.60;0.40;;;21.70;51.30;;;;;;6194541;28;20014;-69
2022/05/23 09:32:51;;;;;;;1.00;0.57;;;21.70;51.30;;;;;;6177585;28;20046;-69
2022/05/23 09:36:09;;;;;;;0.52;0.40;;;21.70;51.30;;;;;;6177915;28;20031;-69
2022/05/23 09:39:20;;;;;;;1.33;0.38;;;21.70;51.30;;;;;;6177760;28;20155;-70
2022/05/23 09:49:52;;;;;;;0.93;0.50;;;21.70;51.30;;;;;;6161395;28;20066;-69
2022/05/23 09:52:56;;;;;;;0.47;0.40;;;21.70;51.40;;;;;;6177648;28;20496;-69
2022/05/23 09:56:29;;;;;;;0.30;0.30;;;21.70;51.30;;;;;;6177226;28;20061;-69
2022/05/23 09:59:36;;;;;;;0.30;0.30;;;21.70;51.40;;;;;;6172285;28;20374;-70
2022/05/23 10:02:41;;;;;;;0.68;0.47;;;21.70;51.40;;;;;;6177054;28;20034;-69
2022/05/23 10:05:46;;;;;;;0.57;0.43;;;21.70;51.40;;;;;;6176994;28;20105;-70
2022/05/23 10:08:48;;;;;;;0.63;0.40;;;21.70;51.40;;;;;;6176759;28;20031;-69
2022/05/23 10:12:01;;;;;;;0.57;0.40;;;21.70;51.30;;;;;;6176879;28;20058;-69
2022/05/23 10:15:25;;;;;;;0.75;0.40;;;21.70;51.30;;;;;;6176893;28;20129;-69
2022/05/23 10:18:32;;;;;;;2.20;0.73;;;21.70;51.30;;;;;;6159154;28;20074;-69
2022/05/23 10:21:36;;;;;;;1.35;0.57;;;21.70;51.30;;;;;;6159525;28;20034;-69
2022/05/23 10:24:41;;;;;;;0.35;0.32;;;21.70;51.30;;;;;;6176646;28;20082;-69
2022/05/23 10:27:53;;;;;;;0.47;0.35;;;21.70;51.30;;;;;;6175938;28;20494;-70
2022/05/23 10:31:03;;;;;;;1.05;0.40;;;21.70;51.30;;;;;;6193667;28;20107;-70
2022/05/23 10:34:08;;;;;;;1.63;0.50;;;21.70;51.40;;;;;;6225138;28;20041;-71
2022/05/23 10:37:17;;;;;;;0.53;0.30;;;21.70;51.30;;;;;;6207580;28;20033;-70
2022/05/23 10:44:02;;;;;;;0.60;0.50;;;21.70;51.30;;;;;;6225568;28;20033;-69
2022/05/23 10:47:24;;;;;;;0.30;0.30;;;21.70;51.30;;;;;;6207692;28;20080;-71
2022/05/23 10:50:34;;;;;;;0.30;0.30;;;21.70;51.30;;;;;;6223770;28;20496;-70
2022/05/23 10:54:30;;;;;;;0.40;0.30;;;21.70;51.30;;;;;;6207807;28;20432;-71
2022/05/23 10:57:56;;;;;;;0.35;0.30;;;21.70;51.30;;;;;;6168464;28;20501;-70
2022/05/23 11:01:13;;;;;;;0.95;0.40;;;21.70;51.30;;;;;;6182768;28;20022;-70
2022/05/23 11:04:20;;;;;;;0.95;0.45;;;21.60;51.20;;;;;;6199636;28;20081;-70
2022/05/23 11:08:04;;;;;;;0.50;0.40;;;21.70;51.30;;;;;;6199866;28;20018;-70
2022/05/23 11:11:13;;;;;;;0.40;0.40;;;21.70;51.30;;;;;;6182348;28;20026;-70
2022/05/23 11:14:40;;;;;;;0.30;0.30;;;21.70;51.30;;;;;;6199658;28;20385;-71
2022/05/23 11:18:04;;;;;;;0.25;0.25;;;21.70;51.30;;;;;;6199814;28;20113;-70
2022/05/23 11:21:11;;;;;;;0.30;0.30;;;21.70;51.30;;;;;;6199357;28;20503;-70
2022/05/23 11:24:35;;;;;;;0.30;0.28;;;21.70;51.30;;;;;;6199434;28;20037;-70
2022/05/23 11:34:56;;;;;;;0.30;0.30;;;21.70;51.30;;;;;;6215925;28;20026;-70
2022/05/23 11:38:01;;;;;;;0.32;0.30;;;21.70;51.30;;;;;;6222278;28;20041;-67
2022/05/23 11:41:04;;;;;;;0.40;0.30;;;21.60;51.20;;;;;;6238423;28;20532;-68
2022/05/23 11:44:44;;;;;;;0.30;0.30;;;21.70;51.30;;;;;;6222942;28;20026;-68
2022/05/23 11:47:47;;;;;;;0.40;0.32;;;21.70;51.30;;;;;;6204419;28;20069;-67
2022/05/23 11:50:50;;;;;;;0.35;0.30;;;21.70;51.20;;;;;;6204113;28;21983;-66
2022/05/23 11:53:59;;;;;;;0.30;0.30;;;21.70;51.30;;;;;;6192793;28;20476;-67
2022/05/23 11:57:00;;;;;;;0.30;0.30;;;21.70;51.20;;;;;;6196889;28;20765;-67
2022/05/23 12:00:06;;;;;;;0.30;0.30;;;21.70;51.30;;;;;;6196871;28;20035;-67
2022/05/23 12:03:14;;;;;;;0.73;0.35;;;21.70;51.30;;;;;;6205356;28;20049;-67
2022/05/23 12:06:18;;;;;;;0.30;0.30;;;21.70;51.30;;;;;;6222319;28;20038;-70
2022/05/23 12:09:19;;;;;;;0.20;0.20;;;21.70;51.30;;;;;;6179173;28;20556;-70
2022/05/23 12:12:28;;;;;;;0.30;0.30;;;21.70;51.30;;;;;;6196729;28;20030;-70
2022/05/23 12:15:46;;;;;;;0.40;0.32;;;21.70;51.30;;;;;;6179143;28;20033;-70
2022/05/23 12:18:49;;;;;;;0.30;0.30;;;21.70;51.30;;;;;;6196468;28;20026;-70
2022/05/23 12:21:50;;;;;;;0.30;0.20;;;21.70;51.30;;;;;;6196509;28;20378;-70
2022/05/23 12:25:10;;;;;;;0.40;0.40;;;21.70;51.40;;;;;;6178976;28;20041;-70
2022/05/23 12:28:16;;;;;;;0.30;0.30;;;21.70;51.30;;;;;;6195404;28;20062;-69
2022/05/23 12:31:18;;;;;;;0.30;0.30;;;21.70;51.30;;;;;;6220515;28;20465;-70
2022/05/23 12:34:19;;;;;;;0.40;0.30;;;21.70;51.30;;;;;;6202999;28;20033;-70
2022/05/23 12:37:36;;;;;;;0.30;0.30;;;21.70;51.40;;;;;;6221078;28;20109;-69
2022/05/23 12:40:47;;;;;;;0.38;0.28;;;21.60;51.20;;;;;;6196372;28;20030;-70
2022/05/23 12:43:57;;;;;;;0.30;0.30;;;21.60;51.20;;;;;;6202783;28;20125;-69
2022/05/23 12:47:22;;;;;;;0.70;0.30;;;21.70;51.30;;;;;;6202200;28;20481;-69
2022/05/23 12:50:32;;;;;;;0.30;0.30;;;21.60;51.20;;;;;;6178348;28;20037;-69
2022/05/23 12:54:00;;;;;;;0.35;0.30;;;21.60;51.20;;;;;;6195656;28;20056;-70
2022/05/23 12:57:39;;;;;;;0.60;0.40;;;21.60;51.20;;;;;;6196047;28;20444;-70
2022/05/23 13:00:55;;;;;;;0.30;0.30;;;21.60;51.20;;;;;;6195686;28;20026;-70
2022/05/23 13:04:11;;;;;;;0.30;0.30;;;21.70;51.40;;;;;;6178016;28;20037;-70
2022/05/23 13:07:23;;;;;;;0.40;0.30;;;21.60;51.20;;;;;;6173633;28;20035;-69
2022/05/23 13:10:34;;;;;;;0.20;0.20;;;21.60;51.20;;;;;;6169855;28;20072;-67
2022/05/23 13:13:46;;;;;;;0.28;0.28;;;21.60;51.20;;;;;;6193664;28;20026;-66
2022/05/23 13:16:54;;;;;;;0.43;0.30;;;21.60;51.30;;;;;;6194606;28;20025;-65
2022/05/23 13:23:17;;;;;;;0.30;0.20;;;21.60;51.20;;;;;;6195012;28;20481;-65
2022/05/23 13:26:18;;;;;;;0.28;0.20;;;21.60;51.30;;;;;;6211770;28;20029;-67
2022/05/23 13:29:21;;;;;;;0.35;0.30;;;21.60;51.20;;;;;;6219309;28;20057;-65
2022/05/23 13:32:23;;;;;;;0.22;0.20;;;21.60;51.30;;;;;;6219109;28;20504;-66
2022/05/23 13:35:25;;;;;;;0.60;0.30;;;21.60;51.20;;;;;;6219005;28;20022;-65
2022/05/23 13:38:31;;;;;;;0.20;0.20;;;21.60;51.30;;;;;;6219289;28;20046;-66
2022/05/23 13:41:32;;;;;;;0.28;0.28;;;21.60;51.30;;;;;;6217731;28;20026;-65
2022/05/23 13:44:35;;;;;;;0.30;0.30;;;21.60;51.20;;;;;;6177564;28;20030;-66
2022/05/23 13:47:39;;;;;;;0.22;0.22;;;21.60;51.30;;;;;;6171081;28;20031;-65
2022/05/23 13:50:44;;;;;;;0.20;0.20;;;21.60;51.30;;;;;;6187297;28;20034;-69
2022/05/23 13:54:12;;;;;;;0.65;0.40;;;21.60;51.30;;;;;;6192962;28;20032;-68
2022/05/23 13:57:26;;;;;;;0.43;0.30;;;21.60;51.30;;;;;;6151262;28;20058;-65
2022/05/23 14:00:36;;;;;;;0.50;0.30;;;21.60;51.30;;;;;;6170386;28;20023;-67
2022/05/23 14:03:41;;;;;;;0.30;0.30;;;21.60;51.30;;;;;;6169901;28;20097;-66
2022/05/23 14:07:03;;;;;;;0.60;0.28;;;21.60;51.30;;;;;;6178632;28;20105;-65
2022/05/23 14:10:07;;;;;;;0.32;0.20;;;21.60;51.30;;;;;;6193629;28;20096;-65
2022/05/23 14:13:10;;;;;;;0.88;0.30;;;21.60;51.30;;;;;;6194433;28;20022;-65
2022/05/23 14:16:15;;;;;;;0.52;0.20;;;21.60;51.30;;;;;;6195292;28;20477;-66
2022/05/23 14:19:27;;;;;;;0.50;0.30;;;21.60;51.30;;;;;;6198565;28;20032;-67
2022/05/23 14:22:30;;;;;;;0.57;0.30;;;21.60;51.30;;;;;;6213566;28;20113;-65
2022/05/23 14:25:41;;;;;;;0.32;0.30;;;21.60;51.30;;;;;;6198931;28;20511;-67
2022/05/23 14:28:52;;;;;;;0.30;0.30;;;21.60;51.30;;;;;;6198366;28;20033;-67
2022/05/23 14:31:53;;;;;;;0.30;0.30;;;21.60;51.30;;;;;;6211610;28;20046;-69
2022/05/23 14:34:54;;;;;;;0.28;0.28;;;21.60;51.30;;;;;;6222454;28;20034;-69
2022/05/23 14:37:55;;;;;;;0.28;0.28;;;21.60;51.30;;;;;;6222365;28;20546;-68
2022/05/23 14:40:57;;;;;;;0.75;0.25;;;21.60;51.30;;;;;;6222686;28;20057;-67
2022/05/23 14:44:04;;;;;;;0.20;0.20;;;21.60;51.30;;;;;;6191735;28;20022;-67
2022/05/23 14:47:20;;;;;;;0.30;0.20;;;21.60;51.30;;;;;;6197674;28;20041;-66
2022/05/23 14:50:30;;;;;;;1.35;0.20;;;21.60;51.30;;;;;;6205038;28;20026;-66
2022/05/23 14:57:18;;;;;;;0.25;0.25;;;21.60;51.30;;;;;;6197843;28;20023;-67
2022/05/23 15:00:41;;;;;;;0.20;0.20;;;21.60;51.30;;;;;;6197035;28;20728;-69
2022/05/23 15:03:45;;;;;;;1.08;0.30;;;21.60;51.30;;;;;;6198234;28;20023;-67
2022/05/23 15:06:45;;;;;;;0.30;0.20;;;21.60;51.30;;;;;;6197705;28;20456;-68
2022/05/23 15:09:46;;;;;;;0.20;0.20;;;21.60;51.50;;;;;;6197819;28;20029;-68
2022/05/23 15:12:47;;;;;;;0.30;0.30;;;21.60;51.40;;;;;;6182413;28;20518;-68
2022/05/23 15:15:47;;;;;;;1.83;0.45;;;21.60;51.40;;;;;;6197940;28;20058;-68
2022/05/23 15:18:48;;;;;;;0.30;0.30;;;21.60;51.30;;;;;;6198052;28;20029;-69
2022/05/23 15:21:50;;;;;;;0.30;0.20;;;21.60;51.40;;;;;;6191186;28;20054;-69
2022/05/23 15:24:50;;;;;;;0.22;0.20;;;21.60;51.40;;;;;;6174137;28;20105;-68
2022/05/23 15:27:52;;;;;;;0.28;0.20;;;21.60;51.40;;;;;;6173684;28;20034;-68
2022/05/23 15:30:52;;;;;;;0.35;0.30;;;21.60;52.10;;;;;;6179225;28;20062;-68
2022/05/23 15:33:55;;;;;;;0.30;0.30;;;21.60;51.40;;;;;;6197053;28;20601;-68
2022/05/23 15:36:56;;;;;;;0.30;0.30;;;21.60;51.40;;;;;;6197251;28;20389;-68
2022/05/23 15:39:56;;;;;;;0.32;0.20;;;21.60;51.30;;;;;;6197353;28;20019;-68
2022/05/23 15:42:57;;;;;;;0.10;0.10;;;21.60;51.40;;;;;;6196613;28;20540;-67
2022/05/23 15:45:58;;;;;;;0.63;0.30;;;21.60;51.40;;;;;;6196414;28;20031;-66
2022/05/23 15:48:58;;;;;;;0.30;0.30;;;21.60;51.40;;;;;;6211628;28;20033;-67
2022/05/23 15:52:02;;;;;;;0.25;0.25;;;21.60;51.50;;;;;;6213660;28;20417;-68
2022/05/23 15:55:04;;;;;;;0.30;0.30;;;21.60;51.50;;;;;;6196682;28;20054;-67
2022/05/23 15:58:04;;;;;;;0.57;0.38;;;21.60;51.70;;;;;;6195858;28;20811;-67
2022/05/23 16:01:10;;;;;;;0.47;0.30;;;21.60;51.50;;;;;;6194302;28;20050;-67
2022/05/23 16:04:13;;;;;;;0.68;0.32;;;21.60;51.60;;;;;;6195832;28;20619;-67
2022/05/23 16:07:14;;;;;;;0.28;0.28;;;21.60;51.60;;;;;;6198117;28;20026;-66
2022/05/23 16:10:15;;;;;;;0.65;0.43;;;21.60;51.50;;;;;;6196781;28;20041;-66
2022/05/23 16:13:16;;;;;;;0.52;0.30;;;21.60;51.50;;;;;;6193816;28;20500;-66
2022/05/23 16:16:21;;;;;;;3.03;0.30;;;21.60;51.50;;;;;;6195560;28;20046;-67
2022/05/23 16:19:23;;;;;;;0.47;0.30;;;21.60;51.50;;;;;;6177180;28;20061;-66
2022/05/23 16:22:26;;;;;;;1.08;0.30;;;21.60;51.40;;;;;;6195738;28;20148;-67
2022/05/23 16:25:27;;;;;;;0.22;0.22;;;21.60;51.50;;;;;;6194347;28;20080;-67
2022/05/23 16:28:28;;;;;;;0.45;0.25;;;21.60;51.60;;;;;;6194062;28;20030;-66
2022/05/23 16:31:29;;;;;;;0.68;0.30;;;21.60;51.50;;;;;;6188855;28;20057;-67
2022/05/23 16:37:48;;;;;;;0.50;0.30;;;21.70;51.30;;;;;;6214794;28;20022;-67
2022/05/23 16:40:49;;;;;;;1.17;0.40;;;21.70;51.20;;;;;;6192621;28;20117;-66
2022/05/23 16:43:52;;;;;;;1.83;0.50;;;21.70;51.20;;;;;;6192960;28;20089;-67
2022/05/23 16:46:52;;;;;;;0.52;0.30;;;21.70;51.30;;;;;;6210653;28;20569;-66
2022/05/23 16:49:54;;;;;;;0.32;0.20;;;21.70;51.40;;;;;;6216859;28;20034;-67
2022/05/23 16:52:56;;;;;;;0.52;0.32;;;21.60;51.20;;;;;;6206153;28;20056;-67
2022/05/23 16:55:57;;;;;;;1.10;0.63;;;21.60;51.20;;;;;;6192556;28;20019;-67
2022/05/23 16:58:57;;;;;;;0.40;0.30;;;21.60;51.30;;;;;;6193131;28;20493;-67
2022/05/23 17:02:02;;;;;;;0.30;0.30;;;21.60;51.30;;;;;;6186830;28;20018;-67
2022/05/23 17:05:03;;;;;;;1.13;0.50;;;21.60;51.30;;;;;;6176395;28;20031;-67
2022/05/23 17:08:04;;;;;;;1.55;0.20;;;21.60;51.30;;;;;;6191874;28;20027;-67
2022/05/23 17:11:05;;;;;;;0.25;0.25;;;21.60;51.30;;;;;;6179360;28;20085;-67
2022/05/23 17:14:06;;;;;;;0.20;0.20;;;21.60;51.40;;;;;;6171783;28;20486;-67